sensor_id;sensor_type;location;lat;lon;timestamp;P1;durP1;ratioP1;P2;durP2;ratioP2
82811;SDS011;72567;55.696;37.960;2024-02-26T00:02:01;13.95;;;3.88;;
82811;SDS011;72567;55.696;37.960;2024-02-26T00:05:02;8.23;;;3.03;;
82811;SDS011;72567;55.696;37.960;2024-02-26T00:08:04;12.07;;;3.72;;
82811;SDS011;72567;55.696;37.960;2024-02-26T00:11:05;5.95;;;2.58;;
82811;SDS011;72567;55.696;37.960;2024-02-26T00:14:06;6.70;;;3.05;;
82811;SDS011;72567;55.696;37.960;2024-02-26T00:17:06;5.45;;;2.72;;
82811;SDS011;72567;55.696;37.960;2024-02-26T00:20:07;8.43;;;2.53;;
82811;SDS011;72567;55.696;37.960;2024-02-26T00:23:11;7.88;;;3.22;;
82811;SDS011;72567;55.696;37.960;2024-02-26T00:26:12;5.75;;;2.60;;
82811;SDS011;72567;55.696;37.960;2024-02-26T00:29:12;7.53;;;2.40;;
82811;SDS011;72567;55.696;37.960;2024-02-26T00:32:13;8.52;;;3.20;;
82811;SDS011;72567;55.696;37.960;2024-02-26T00:35:17;8.23;;;3.08;;
82811;SDS011;72567;55.696;37.960;2024-02-26T00:38:20;10.52;;;3.05;;
82811;SDS011;72567;55.696;37.960;2024-02-26T00:41:21;5.13;;;2.42;;
82811;SDS011;72567;55.696;37.960;2024-02-26T00:44:21;9.45;;;2.97;;
82811;SDS011;72567;55.696;37.960;2024-02-26T00:47:22;7.13;;;3.00;;
82811;SDS011;72567;55.696;37.960;2024-02-26T00:50:26;5.63;;;2.20;;
82811;SDS011;72567;55.696;37.960;2024-02-26T00:53:27;6.72;;;2.90;;
82811;SDS011;72567;55.696;37.960;2024-02-26T00:56:29;6.85;;;2.17;;
82811;SDS011;72567;55.696;37.960;2024-02-26T00:59:30;6.30;;;3.25;;
82811;SDS011;72567;55.696;37.960;2024-02-26T01:02:30;5.47;;;2.55;;
82811;SDS011;72567;55.696;37.960;2024-02-26T01:05:31;8.80;;;2.80;;
82811;SDS011;72567;55.696;37.960;2024-02-26T01:08:31;6.82;;;2.97;;
82811;SDS011;72567;55.696;37.960;2024-02-26T01:11:32;7.65;;;3.17;;
82811;SDS011;72567;55.696;37.960;2024-02-26T01:14:33;8.10;;;2.60;;
82811;SDS011;72567;55.696;37.960;2024-02-26T01:17:34;6.57;;;2.88;;
82811;SDS011;72567;55.696;37.960;2024-02-26T01:20:34;6.00;;;2.85;;
82811;SDS011;72567;55.696;37.960;2024-02-26T01:23:35;6.25;;;2.75;;
82811;SDS011;72567;55.696;37.960;2024-02-26T01:26:36;3.70;;;1.80;;
82811;SDS011;72567;55.696;37.960;2024-02-26T01:29:36;5.45;;;2.42;;
82811;SDS011;72567;55.696;37.960;2024-02-26T01:32:37;6.78;;;3.17;;
82811;SDS011;72567;55.696;37.960;2024-02-26T01:35:47;5.82;;;2.40;;
82811;SDS011;72567;55.696;37.960;2024-02-26T01:38:50;5.07;;;2.22;;
82811;SDS011;72567;55.696;37.960;2024-02-26T01:41:51;6.28;;;2.97;;
82811;SDS011;72567;55.696;37.960;2024-02-26T01:44:54;5.80;;;2.67;;
82811;SDS011;72567;55.696;37.960;2024-02-26T01:47:55;5.45;;;2.60;;
82811;SDS011;72567;55.696;37.960;2024-02-26T01:50:56;6.60;;;2.45;;
82811;SDS011;72567;55.696;37.960;2024-02-26T01:53:58;6.38;;;2.10;;
82811;SDS011;72567;55.696;37.960;2024-02-26T01:56:59;5.03;;;1.90;;
82811;SDS011;72567;55.696;37.960;2024-02-26T02:00:00;4.82;;;1.77;;
82811;SDS011;72567;55.696;37.960;2024-02-26T02:03:03;4.70;;;2.25;;
82811;SDS011;72567;55.696;37.960;2024-02-26T02:06:04;6.88;;;2.25;;
82811;SDS011;72567;55.696;37.960;2024-02-26T02:09:05;6.70;;;2.28;;
82811;SDS011;72567;55.696;37.960;2024-02-26T02:12:07;3.60;;;1.42;;
82811;SDS011;72567;55.696;37.960;2024-02-26T02:15:08;8.85;;;2.70;;
82811;SDS011;72567;55.696;37.960;2024-02-26T02:18:09;5.85;;;2.85;;
82811;SDS011;72567;55.696;37.960;2024-02-26T02:21:10;3.30;;;1.63;;
82811;SDS011;72567;55.696;37.960;2024-02-26T02:24:11;7.05;;;2.35;;
82811;SDS011;72567;55.696;37.960;2024-02-26T02:27:12;6.55;;;2.10;;
82811;SDS011;72567;55.696;37.960;2024-02-26T02:30:13;5.32;;;2.40;;
82811;SDS011;72567;55.696;37.960;2024-02-26T02:33:13;4.30;;;1.83;;
82811;SDS011;72567;55.696;37.960;2024-02-26T02:36:15;6.00;;;2.67;;
82811;SDS011;72567;55.696;37.960;2024-02-26T02:39:16;5.93;;;2.20;;
82811;SDS011;72567;55.696;37.960;2024-02-26T02:42:16;7.43;;;3.00;;
82811;SDS011;72567;55.696;37.960;2024-02-26T02:45:17;4.53;;;1.80;;
82811;SDS011;72567;55.696;37.960;2024-02-26T02:48:17;8.65;;;2.05;;
82811;SDS011;72567;55.696;37.960;2024-02-26T02:51:18;4.63;;;2.17;;
82811;SDS011;72567;55.696;37.960;2024-02-26T02:54:22;6.53;;;2.13;;
82811;SDS011;72567;55.696;37.960;2024-02-26T02:57:32;4.40;;;1.77;;
82811;SDS011;72567;55.696;37.960;2024-02-26T03:03:48;8.23;;;2.40;;
82811;SDS011;72567;55.696;37.960;2024-02-26T03:06:49;5.57;;;2.30;;
82811;SDS011;72567;55.696;37.960;2024-02-26T03:09:50;4.47;;;2.10;;
82811;SDS011;72567;55.696;37.960;2024-02-26T03:12:50;5.38;;;2.15;;
82811;SDS011;72567;55.696;37.960;2024-02-26T03:15:51;6.60;;;2.78;;
82811;SDS011;72567;55.696;37.960;2024-02-26T03:18:52;5.82;;;2.50;;
82811;SDS011;72567;55.696;37.960;2024-02-26T03:21:52;3.55;;;1.50;;
82811;SDS011;72567;55.696;37.960;2024-02-26T03:24:53;4.72;;;2.22;;
82811;SDS011;72567;55.696;37.960;2024-02-26T03:27:54;7.65;;;2.53;;
82811;SDS011;72567;55.696;37.960;2024-02-26T03:30:54;5.68;;;2.30;;
82811;SDS011;72567;55.696;37.960;2024-02-26T03:33:55;9.13;;;2.58;;
82811;SDS011;72567;55.696;37.960;2024-02-26T03:36:56;10.07;;;2.78;;
82811;SDS011;72567;55.696;37.960;2024-02-26T03:39:57;5.47;;;2.28;;
82811;SDS011;72567;55.696;37.960;2024-02-26T03:42:58;5.68;;;2.28;;
82811;SDS011;72567;55.696;37.960;2024-02-26T03:45:58;5.63;;;2.20;;
82811;SDS011;72567;55.696;37.960;2024-02-26T03:48:59;5.45;;;2.42;;
82811;SDS011;72567;55.696;37.960;2024-02-26T03:52:00;5.82;;;2.47;;
82811;SDS011;72567;55.696;37.960;2024-02-26T03:55:00;5.32;;;1.95;;
82811;SDS011;72567;55.696;37.960;2024-02-26T03:58:04;7.22;;;3.03;;
82811;SDS011;72567;55.696;37.960;2024-02-26T04:01:27;6.40;;;2.88;;
82811;SDS011;72567;55.696;37.960;2024-02-26T04:04:28;8.60;;;2.83;;
82811;SDS011;72567;55.696;37.960;2024-02-26T04:07:29;3.70;;;2.17;;
82811;SDS011;72567;55.696;37.960;2024-02-26T04:10:29;3.65;;;1.73;;
82811;SDS011;72567;55.696;37.960;2024-02-26T04:13:30;4.97;;;2.22;;
82811;SDS011;72567;55.696;37.960;2024-02-26T04:16:31;6.65;;;2.75;;
82811;SDS011;72567;55.696;37.960;2024-02-26T04:19:31;5.18;;;1.95;;
82811;SDS011;72567;55.696;37.960;2024-02-26T04:22:32;5.63;;;2.33;;
82811;SDS011;72567;55.696;37.960;2024-02-26T04:25:33;8.85;;;3.35;;
82811;SDS011;72567;55.696;37.960;2024-02-26T04:28:34;5.95;;;2.00;;
82811;SDS011;72567;55.696;37.960;2024-02-26T04:31:34;7.43;;;2.67;;
82811;SDS011;72567;55.696;37.960;2024-02-26T04:34:35;9.15;;;3.88;;
82811;SDS011;72567;55.696;37.960;2024-02-26T04:37:36;7.65;;;3.00;;
82811;SDS011;72567;55.696;37.960;2024-02-26T04:40:36;6.45;;;2.45;;
82811;SDS011;72567;55.696;37.960;2024-02-26T04:43:40;5.20;;;2.53;;
82811;SDS011;72567;55.696;37.960;2024-02-26T04:46:41;6.38;;;2.90;;
82811;SDS011;72567;55.696;37.960;2024-02-26T04:49:42;6.50;;;2.03;;
82811;SDS011;72567;55.696;37.960;2024-02-26T04:52:43;7.28;;;2.47;;
82811;SDS011;72567;55.696;37.960;2024-02-26T04:55:43;8.00;;;2.83;;
82811;SDS011;72567;55.696;37.960;2024-02-26T04:58:44;8.00;;;3.50;;
82811;SDS011;72567;55.696;37.960;2024-02-26T05:01:45;6.05;;;2.75;;
82811;SDS011;72567;55.696;37.960;2024-02-26T05:04:46;5.97;;;3.08;;
82811;SDS011;72567;55.696;37.960;2024-02-26T05:07:46;4.70;;;2.80;;
82811;SDS011;72567;55.696;37.960;2024-02-26T05:10:47;5.95;;;2.88;;
82811;SDS011;72567;55.696;37.960;2024-02-26T05:13:48;5.80;;;2.38;;
82811;SDS011;72567;55.696;37.960;2024-02-26T05:16:48;6.93;;;2.88;;
82811;SDS011;72567;55.696;37.960;2024-02-26T05:19:49;5.45;;;2.75;;
82811;SDS011;72567;55.696;37.960;2024-02-26T05:22:50;8.30;;;3.83;;
82811;SDS011;72567;55.696;37.960;2024-02-26T05:25:50;6.30;;;3.30;;
82811;SDS011;72567;55.696;37.960;2024-02-26T05:28:51;11.10;;;4.20;;
82811;SDS011;72567;55.696;37.960;2024-02-26T05:31:52;8.65;;;3.17;;
82811;SDS011;72567;55.696;37.960;2024-02-26T05:34:54;7.88;;;3.70;;
82811;SDS011;72567;55.696;37.960;2024-02-26T05:37:55;6.18;;;2.88;;
82811;SDS011;72567;55.696;37.960;2024-02-26T05:40:55;7.13;;;3.15;;
82811;SDS011;72567;55.696;37.960;2024-02-26T05:43:56;8.15;;;3.35;;
82811;SDS011;72567;55.696;37.960;2024-02-26T05:46:57;7.65;;;3.33;;
82811;SDS011;72567;55.696;37.960;2024-02-26T05:49:57;10.82;;;3.80;;
82811;SDS011;72567;55.696;37.960;2024-02-26T05:52:59;4.85;;;2.53;;
82811;SDS011;72567;55.696;37.960;2024-02-26T05:56:00;6.13;;;2.88;;
82811;SDS011;72567;55.696;37.960;2024-02-26T05:59:01;6.65;;;2.83;;
82811;SDS011;72567;55.696;37.960;2024-02-26T06:02:01;5.03;;;2.25;;
82811;SDS011;72567;55.696;37.960;2024-02-26T06:05:03;10.07;;;3.85;;
82811;SDS011;72567;55.696;37.960;2024-02-26T06:08:07;8.90;;;3.97;;
82811;SDS011;72567;55.696;37.960;2024-02-26T06:11:10;9.10;;;3.75;;
82811;SDS011;72567;55.696;37.960;2024-02-26T06:14:11;9.00;;;3.08;;
82811;SDS011;72567;55.696;37.960;2024-02-26T06:17:13;6.78;;;3.05;;
82811;SDS011;72567;55.696;37.960;2024-02-26T06:20:17;8.10;;;3.95;;
82811;SDS011;72567;55.696;37.960;2024-02-26T06:23:18;7.07;;;2.90;;
82811;SDS011;72567;55.696;37.960;2024-02-26T06:26:27;14.38;;;5.18;;
82811;SDS011;72567;55.696;37.960;2024-02-26T06:29:33;11.30;;;3.88;;
82811;SDS011;72567;55.696;37.960;2024-02-26T06:32:34;13.02;;;3.78;;
82811;SDS011;72567;55.696;37.960;2024-02-26T06:35:38;9.73;;;4.20;;
82811;SDS011;72567;55.696;37.960;2024-02-26T06:42:11;11.38;;;3.60;;
82811;SDS011;72567;55.696;37.960;2024-02-26T06:45:15;7.15;;;3.13;;
82811;SDS011;72567;55.696;37.960;2024-02-26T06:48:20;8.07;;;3.38;;
82811;SDS011;72567;55.696;37.960;2024-02-26T06:51:20;9.23;;;3.70;;
82811;SDS011;72567;55.696;37.960;2024-02-26T06:54:21;7.80;;;3.60;;
82811;SDS011;72567;55.696;37.960;2024-02-26T06:57:22;8.35;;;4.20;;
82811;SDS011;72567;55.696;37.960;2024-02-26T07:00:23;9.35;;;4.07;;
82811;SDS011;72567;55.696;37.960;2024-02-26T07:03:24;9.50;;;3.92;;
82811;SDS011;72567;55.696;37.960;2024-02-26T07:06:26;8.68;;;3.17;;
82811;SDS011;72567;55.696;37.960;2024-02-26T07:09:27;7.95;;;3.42;;
82811;SDS011;72567;55.696;37.960;2024-02-26T07:12:28;9.63;;;3.75;;
82811;SDS011;72567;55.696;37.960;2024-02-26T07:15:29;8.60;;;3.92;;
82811;SDS011;72567;55.696;37.960;2024-02-26T07:18:29;11.65;;;4.45;;
82811;SDS011;72567;55.696;37.960;2024-02-26T07:21:30;14.65;;;7.72;;
82811;SDS011;72567;55.696;37.960;2024-02-26T07:24:31;9.07;;;4.30;;
82811;SDS011;72567;55.696;37.960;2024-02-26T07:27:32;10.27;;;4.63;;
82811;SDS011;72567;55.696;37.960;2024-02-26T07:30:32;8.63;;;3.33;;
82811;SDS011;72567;55.696;37.960;2024-02-26T07:33:33;10.40;;;4.20;;
82811;SDS011;72567;55.696;37.960;2024-02-26T07:36:34;10.98;;;4.15;;
82811;SDS011;72567;55.696;37.960;2024-02-26T07:39:34;8.48;;;3.40;;
82811;SDS011;72567;55.696;37.960;2024-02-26T07:42:35;9.20;;;4.13;;
82811;SDS011;72567;55.696;37.960;2024-02-26T07:45:35;10.40;;;4.85;;
82811;SDS011;72567;55.696;37.960;2024-02-26T07:48:36;10.75;;;4.00;;
82811;SDS011;72567;55.696;37.960;2024-02-26T07:51:37;9.48;;;4.13;;
82811;SDS011;72567;55.696;37.960;2024-02-26T07:54:38;9.35;;;3.78;;
82811;SDS011;72567;55.696;37.960;2024-02-26T07:57:42;9.73;;;3.78;;
82811;SDS011;72567;55.696;37.960;2024-02-26T08:00:46;9.65;;;3.90;;
82811;SDS011;72567;55.696;37.960;2024-02-26T08:03:47;10.35;;;3.88;;
82811;SDS011;72567;55.696;37.960;2024-02-26T08:06:47;8.65;;;3.95;;
82811;SDS011;72567;55.696;37.960;2024-02-26T08:09:48;7.95;;;3.85;;
82811;SDS011;72567;55.696;37.960;2024-02-26T08:12:48;9.70;;;4.13;;
82811;SDS011;72567;55.696;37.960;2024-02-26T08:15:49;8.85;;;4.00;;
82811;SDS011;72567;55.696;37.960;2024-02-26T08:18:50;7.38;;;4.10;;
82811;SDS011;72567;55.696;37.960;2024-02-26T08:21:50;11.85;;;4.40;;
82811;SDS011;72567;55.696;37.960;2024-02-26T08:24:51;12.75;;;4.60;;
82811;SDS011;72567;55.696;37.960;2024-02-26T08:27:52;11.30;;;4.60;;
82811;SDS011;72567;55.696;37.960;2024-02-26T08:30:53;10.50;;;4.28;;
82811;SDS011;72567;55.696;37.960;2024-02-26T08:33:53;11.48;;;4.57;;
82811;SDS011;72567;55.696;37.960;2024-02-26T08:36:54;9.32;;;4.35;;
82811;SDS011;72567;55.696;37.960;2024-02-26T08:39:54;7.25;;;4.15;;
82811;SDS011;72567;55.696;37.960;2024-02-26T08:42:55;14.25;;;4.82;;
82811;SDS011;72567;55.696;37.960;2024-02-26T08:45:59;10.82;;;4.63;;
82811;SDS011;72567;55.696;37.960;2024-02-26T08:48:59;11.57;;;5.20;;
82811;SDS011;72567;55.696;37.960;2024-02-26T08:52:00;10.95;;;4.35;;
82811;SDS011;72567;55.696;37.960;2024-02-26T08:55:01;10.30;;;3.63;;
82811;SDS011;72567;55.696;37.960;2024-02-26T08:58:04;8.60;;;4.22;;
82811;SDS011;72567;55.696;37.960;2024-02-26T09:01:05;6.00;;;2.97;;
82811;SDS011;72567;55.696;37.960;2024-02-26T09:04:05;10.93;;;4.43;;
82811;SDS011;72567;55.696;37.960;2024-02-26T09:07:06;11.88;;;4.38;;
82811;SDS011;72567;55.696;37.960;2024-02-26T09:10:07;10.18;;;4.07;;
82811;SDS011;72567;55.696;37.960;2024-02-26T09:13:11;11.75;;;5.00;;
82811;SDS011;72567;55.696;37.960;2024-02-26T09:16:11;12.15;;;4.68;;
82811;SDS011;72567;55.696;37.960;2024-02-26T09:19:16;10.88;;;4.75;;
82811;SDS011;72567;55.696;37.960;2024-02-26T09:22:19;8.27;;;3.65;;
82811;SDS011;72567;55.696;37.960;2024-02-26T09:29:09;13.60;;;4.78;;
82811;SDS011;72567;55.696;37.960;2024-02-26T09:32:10;8.88;;;4.28;;
82811;SDS011;72567;55.696;37.960;2024-02-26T09:36:27;11.32;;;3.90;;
82811;SDS011;72567;55.696;37.960;2024-02-26T09:39:43;13.30;;;4.68;;
82811;SDS011;72567;55.696;37.960;2024-02-26T09:42:59;10.10;;;4.32;;
82811;SDS011;72567;55.696;37.960;2024-02-26T09:46:01;11.00;;;4.22;;
82811;SDS011;72567;55.696;37.960;2024-02-26T09:49:03;10.20;;;5.22;;
82811;SDS011;72567;55.696;37.960;2024-02-26T09:52:08;9.00;;;4.03;;
82811;SDS011;72567;55.696;37.960;2024-02-26T09:55:12;6.20;;;3.47;;
82811;SDS011;72567;55.696;37.960;2024-02-26T09:58:15;9.88;;;3.60;;
82811;SDS011;72567;55.696;37.960;2024-02-26T10:04:55;9.73;;;3.95;;
82811;SDS011;72567;55.696;37.960;2024-02-26T10:07:58;10.82;;;3.75;;
82811;SDS011;72567;55.696;37.960;2024-02-26T10:11:00;9.77;;;3.65;;
82811;SDS011;72567;55.696;37.960;2024-02-26T10:14:01;10.52;;;3.67;;
82811;SDS011;72567;55.696;37.960;2024-02-26T10:17:07;10.80;;;3.92;;
82811;SDS011;72567;55.696;37.960;2024-02-26T10:20:15;9.68;;;3.40;;
82811;SDS011;72567;55.696;37.960;2024-02-26T10:23:25;8.50;;;3.97;;
82811;SDS011;72567;55.696;37.960;2024-02-26T10:26:26;6.50;;;2.85;;
82811;SDS011;72567;55.696;37.960;2024-02-26T10:29:27;10.20;;;4.45;;
82811;SDS011;72567;55.696;37.960;2024-02-26T10:32:27;12.32;;;4.38;;
82811;SDS011;72567;55.696;37.960;2024-02-26T10:35:28;8.80;;;4.25;;
82811;SDS011;72567;55.696;37.960;2024-02-26T10:38:29;8.70;;;3.88;;
82811;SDS011;72567;55.696;37.960;2024-02-26T10:41:30;6.85;;;2.92;;
82811;SDS011;72567;55.696;37.960;2024-02-26T10:44:31;9.18;;;3.65;;
82811;SDS011;72567;55.696;37.960;2024-02-26T10:47:32;9.13;;;3.35;;
82811;SDS011;72567;55.696;37.960;2024-02-26T10:50:33;9.57;;;3.83;;
82811;SDS011;72567;55.696;37.960;2024-02-26T10:53:35;9.23;;;4.20;;
82811;SDS011;72567;55.696;37.960;2024-02-26T10:56:36;6.05;;;2.53;;
82811;SDS011;72567;55.696;37.960;2024-02-26T10:59:39;7.22;;;3.30;;
82811;SDS011;72567;55.696;37.960;2024-02-26T11:02:43;7.85;;;3.47;;
82811;SDS011;72567;55.696;37.960;2024-02-26T11:05:47;8.35;;;3.28;;
82811;SDS011;72567;55.696;37.960;2024-02-26T11:08:49;8.77;;;3.90;;
82811;SDS011;72567;55.696;37.960;2024-02-26T11:11:51;7.38;;;3.28;;
82811;SDS011;72567;55.696;37.960;2024-02-26T11:14:55;8.20;;;3.90;;
82811;SDS011;72567;55.696;37.960;2024-02-26T11:17:58;7.43;;;3.13;;
82811;SDS011;72567;55.696;37.960;2024-02-26T11:20:59;11.30;;;4.28;;
82811;SDS011;72567;55.696;37.960;2024-02-26T11:23:59;10.68;;;3.40;;
82811;SDS011;72567;55.696;37.960;2024-02-26T11:27:03;10.07;;;4.38;;
82811;SDS011;72567;55.696;37.960;2024-02-26T11:30:05;10.60;;;3.63;;
82811;SDS011;72567;55.696;37.960;2024-02-26T11:33:09;7.90;;;3.95;;
82811;SDS011;72567;55.696;37.960;2024-02-26T11:36:12;10.90;;;3.53;;
82811;SDS011;72567;55.696;37.960;2024-02-26T11:39:14;7.57;;;3.10;;
82811;SDS011;72567;55.696;37.960;2024-02-26T11:42:17;8.77;;;4.28;;
82811;SDS011;72567;55.696;37.960;2024-02-26T11:48:48;11.15;;;4.80;;
82811;SDS011;72567;55.696;37.960;2024-02-26T11:51:52;8.37;;;3.97;;
82811;SDS011;72567;55.696;37.960;2024-02-26T11:54:58;8.85;;;3.88;;
82811;SDS011;72567;55.696;37.960;2024-02-26T11:57:59;8.32;;;3.53;;
82811;SDS011;72567;55.696;37.960;2024-02-26T12:01:00;10.82;;;4.60;;
82811;SDS011;72567;55.696;37.960;2024-02-26T12:04:45;10.02;;;5.03;;
82811;SDS011;72567;55.696;37.960;2024-02-26T12:07:30;10.35;;;4.50;;
82811;SDS011;72567;55.696;37.960;2024-02-26T12:10:32;16.90;;;5.28;;
82811;SDS011;72567;55.696;37.960;2024-02-26T12:13:35;7.80;;;3.33;;
82811;SDS011;72567;55.696;37.960;2024-02-26T12:19:37;8.50;;;4.15;;
82811;SDS011;72567;55.696;37.960;2024-02-26T12:22:49;7.05;;;4.13;;
82811;SDS011;72567;55.696;37.960;2024-02-26T12:25:50;8.10;;;3.75;;
82811;SDS011;72567;55.696;37.960;2024-02-26T12:28:51;15.45;;;5.55;;
82811;SDS011;72567;55.696;37.960;2024-02-26T12:31:52;7.32;;;4.15;;
82811;SDS011;72567;55.696;37.960;2024-02-26T12:35:00;10.23;;;4.05;;
82811;SDS011;72567;55.696;37.960;2024-02-26T12:38:02;9.38;;;3.72;;
82811;SDS011;72567;55.696;37.960;2024-02-26T12:41:04;8.63;;;4.30;;
82811;SDS011;72567;55.696;37.960;2024-02-26T12:44:05;8.30;;;3.55;;
82811;SDS011;72567;55.696;37.960;2024-02-26T12:47:07;13.30;;;3.47;;
82811;SDS011;72567;55.696;37.960;2024-02-26T12:50:08;8.43;;;4.05;;
82811;SDS011;72567;55.696;37.960;2024-02-26T12:53:09;9.00;;;3.53;;
82811;SDS011;72567;55.696;37.960;2024-02-26T12:56:11;7.53;;;3.05;;
82811;SDS011;72567;55.696;37.960;2024-02-26T12:59:14;6.28;;;3.25;;
82811;SDS011;72567;55.696;37.960;2024-02-26T13:02:14;9.23;;;4.13;;
82811;SDS011;72567;55.696;37.960;2024-02-26T13:05:15;8.07;;;3.80;;
82811;SDS011;72567;55.696;37.960;2024-02-26T13:08:19;7.13;;;2.95;;
82811;SDS011;72567;55.696;37.960;2024-02-26T13:11:21;10.98;;;3.65;;
82811;SDS011;72567;55.696;37.960;2024-02-26T13:14:21;9.70;;;3.63;;
82811;SDS011;72567;55.696;37.960;2024-02-26T13:17:22;8.35;;;3.63;;
82811;SDS011;72567;55.696;37.960;2024-02-26T13:20:28;10.90;;;4.20;;
82811;SDS011;72567;55.696;37.960;2024-02-26T13:23:30;5.40;;;2.45;;
82811;SDS011;72567;55.696;37.960;2024-02-26T13:26:30;9.73;;;3.17;;
82811;SDS011;72567;55.696;37.960;2024-02-26T13:29:32;7.20;;;3.13;;
82811;SDS011;72567;55.696;37.960;2024-02-26T13:32:36;8.60;;;3.55;;
82811;SDS011;72567;55.696;37.960;2024-02-26T13:35:43;8.60;;;3.17;;
82811;SDS011;72567;55.696;37.960;2024-02-26T13:38:50;8.48;;;3.03;;
82811;SDS011;72567;55.696;37.960;2024-02-26T13:41:55;6.50;;;3.05;;
82811;SDS011;72567;55.696;37.960;2024-02-26T13:44:57;4.47;;;2.40;;
82811;SDS011;72567;55.696;37.960;2024-02-26T13:48:04;9.25;;;3.85;;
82811;SDS011;72567;55.696;37.960;2024-02-26T13:51:06;6.95;;;3.20;;
82811;SDS011;72567;55.696;37.960;2024-02-26T13:54:07;9.80;;;4.15;;
82811;SDS011;72567;55.696;37.960;2024-02-26T13:57:09;8.15;;;3.47;;
82811;SDS011;72567;55.696;37.960;2024-02-26T14:00:10;7.88;;;3.60;;
82811;SDS011;72567;55.696;37.960;2024-02-26T14:03:11;9.68;;;3.22;;
82811;SDS011;72567;55.696;37.960;2024-02-26T14:06:12;11.15;;;4.25;;
82811;SDS011;72567;55.696;37.960;2024-02-26T14:09:12;9.75;;;2.42;;
82811;SDS011;72567;55.696;37.960;2024-02-26T14:12:18;7.78;;;2.88;;
82811;SDS011;72567;55.696;37.960;2024-02-26T14:15:19;6.28;;;2.55;;
82811;SDS011;72567;55.696;37.960;2024-02-26T14:18:20;6.38;;;3.40;;
82811;SDS011;72567;55.696;37.960;2024-02-26T14:21:20;6.32;;;3.28;;
82811;SDS011;72567;55.696;37.960;2024-02-26T14:24:21;5.47;;;2.72;;
82811;SDS011;72567;55.696;37.960;2024-02-26T14:27:22;8.27;;;3.95;;
82811;SDS011;72567;55.696;37.960;2024-02-26T14:30:22;7.13;;;3.50;;
82811;SDS011;72567;55.696;37.960;2024-02-26T14:33:23;9.57;;;3.60;;
82811;SDS011;72567;55.696;37.960;2024-02-26T14:36:24;7.97;;;2.95;;
82811;SDS011;72567;55.696;37.960;2024-02-26T14:39:25;9.43;;;3.45;;
82811;SDS011;72567;55.696;37.960;2024-02-26T14:42:25;7.28;;;3.20;;
82811;SDS011;72567;55.696;37.960;2024-02-26T14:45:26;6.13;;;2.33;;
82811;SDS011;72567;55.696;37.960;2024-02-26T14:48:27;8.35;;;3.20;;
82811;SDS011;72567;55.696;37.960;2024-02-26T14:51:29;9.00;;;3.25;;
82811;SDS011;72567;55.696;37.960;2024-02-26T14:54:30;8.32;;;3.45;;
82811;SDS011;72567;55.696;37.960;2024-02-26T14:57:36;10.18;;;3.50;;
82811;SDS011;72567;55.696;37.960;2024-02-26T15:00:40;6.25;;;3.42;;
82811;SDS011;72567;55.696;37.960;2024-02-26T15:03:41;10.93;;;3.63;;
82811;SDS011;72567;55.696;37.960;2024-02-26T15:06:42;6.05;;;2.30;;
82811;SDS011;72567;55.696;37.960;2024-02-26T15:09:42;6.30;;;2.42;;
82811;SDS011;72567;55.696;37.960;2024-02-26T15:12:43;6.10;;;2.20;;
82811;SDS011;72567;55.696;37.960;2024-02-26T15:15:43;5.28;;;3.05;;
82811;SDS011;72567;55.696;37.960;2024-02-26T15:18:44;8.77;;;2.95;;
82811;SDS011;72567;55.696;37.960;2024-02-26T15:21:45;5.80;;;2.72;;
82811;SDS011;72567;55.696;37.960;2024-02-26T15:24:49;6.32;;;2.78;;
82811;SDS011;72567;55.696;37.960;2024-02-26T15:27:50;10.02;;;4.70;;
82811;SDS011;72567;55.696;37.960;2024-02-26T15:30:50;6.85;;;3.10;;
82811;SDS011;72567;55.696;37.960;2024-02-26T15:33:51;7.50;;;3.50;;
82811;SDS011;72567;55.696;37.960;2024-02-26T15:36:52;10.30;;;3.55;;
82811;SDS011;72567;55.696;37.960;2024-02-26T15:39:52;9.55;;;4.47;;
82811;SDS011;72567;55.696;37.960;2024-02-26T15:42:53;9.77;;;3.92;;
82811;SDS011;72567;55.696;37.960;2024-02-26T15:45:54;6.97;;;3.80;;
82811;SDS011;72567;55.696;37.960;2024-02-26T15:48:54;10.85;;;4.63;;
82811;SDS011;72567;55.696;37.960;2024-02-26T15:51:55;9.30;;;4.13;;
82811;SDS011;72567;55.696;37.960;2024-02-26T15:54:56;11.90;;;4.38;;
82811;SDS011;72567;55.696;37.960;2024-02-26T15:57:56;9.52;;;4.20;;
82811;SDS011;72567;55.696;37.960;2024-02-26T16:00:57;9.90;;;4.47;;
82811;SDS011;72567;55.696;37.960;2024-02-26T16:03:59;8.35;;;3.90;;
82811;SDS011;72567;55.696;37.960;2024-02-26T16:07:01;10.48;;;3.72;;
82811;SDS011;72567;55.696;37.960;2024-02-26T16:10:04;5.28;;;1.77;;
82811;SDS011;72567;55.696;37.960;2024-02-26T16:13:06;7.72;;;3.63;;
82811;SDS011;72567;55.696;37.960;2024-02-26T16:16:13;6.35;;;2.92;;
82811;SDS011;72567;55.696;37.960;2024-02-26T16:19:18;8.50;;;3.47;;
82811;SDS011;72567;55.696;37.960;2024-02-26T16:22:18;9.80;;;3.20;;
82811;SDS011;72567;55.696;37.960;2024-02-26T16:25:19;6.55;;;3.53;;
82811;SDS011;72567;55.696;37.960;2024-02-26T16:28:19;7.30;;;2.30;;
82811;SDS011;72567;55.696;37.960;2024-02-26T16:31:25;8.52;;;3.25;;
82811;SDS011;72567;55.696;37.960;2024-02-26T16:34:25;9.57;;;3.83;;
82811;SDS011;72567;55.696;37.960;2024-02-26T16:37:26;9.45;;;3.72;;
82811;SDS011;72567;55.696;37.960;2024-02-26T16:40:28;9.57;;;3.40;;
82811;SDS011;72567;55.696;37.960;2024-02-26T16:43:29;8.25;;;3.40;;
82811;SDS011;72567;55.696;37.960;2024-02-26T16:46:32;7.18;;;3.85;;
82811;SDS011;72567;55.696;37.960;2024-02-26T16:49:36;10.30;;;3.63;;
82811;SDS011;72567;55.696;37.960;2024-02-26T16:52:37;9.85;;;3.67;;
82811;SDS011;72567;55.696;37.960;2024-02-26T16:55:37;9.18;;;3.85;;
82811;SDS011;72567;55.696;37.960;2024-02-26T16:58:38;6.45;;;2.97;;
82811;SDS011;72567;55.696;37.960;2024-02-26T17:01:39;9.77;;;2.78;;
82811;SDS011;72567;55.696;37.960;2024-02-26T17:04:40;10.02;;;3.90;;
82811;SDS011;72567;55.696;37.960;2024-02-26T17:07:40;10.77;;;3.85;;
82811;SDS011;72567;55.696;37.960;2024-02-26T17:10:44;8.60;;;3.38;;
82811;SDS011;72567;55.696;37.960;2024-02-26T17:13:45;7.68;;;4.13;;
82811;SDS011;72567;55.696;37.960;2024-02-26T17:16:45;8.43;;;3.03;;
82811;SDS011;72567;55.696;37.960;2024-02-26T17:19:46;8.07;;;2.60;;
82811;SDS011;72567;55.696;37.960;2024-02-26T17:22:47;6.85;;;3.30;;
82811;SDS011;72567;55.696;37.960;2024-02-26T17:25:47;7.55;;;3.95;;
82811;SDS011;72567;55.696;37.960;2024-02-26T17:28:49;9.73;;;3.92;;
82811;SDS011;72567;55.696;37.960;2024-02-26T17:31:49;8.18;;;2.70;;
82811;SDS011;72567;55.696;37.960;2024-02-26T17:34:50;8.77;;;3.67;;
82811;SDS011;72567;55.696;37.960;2024-02-26T17:37:51;9.35;;;3.58;;
82811;SDS011;72567;55.696;37.960;2024-02-26T17:40:51;6.78;;;3.42;;
82811;SDS011;72567;55.696;37.960;2024-02-26T17:43:52;13.32;;;3.00;;
82811;SDS011;72567;55.696;37.960;2024-02-26T17:46:53;11.07;;;3.97;;
82811;SDS011;72567;55.696;37.960;2024-02-26T17:49:54;7.35;;;3.63;;
82811;SDS011;72567;55.696;37.960;2024-02-26T17:52:54;12.05;;;4.38;;
82811;SDS011;72567;55.696;37.960;2024-02-26T17:55:57;8.88;;;3.45;;
82811;SDS011;72567;55.696;37.960;2024-02-26T17:59:00;11.93;;;3.83;;
82811;SDS011;72567;55.696;37.960;2024-02-26T18:02:01;14.50;;;4.00;;
82811;SDS011;72567;55.696;37.960;2024-02-26T18:05:03;9.20;;;3.97;;
82811;SDS011;72567;55.696;37.960;2024-02-26T18:08:11;6.07;;;2.78;;
82811;SDS011;72567;55.696;37.960;2024-02-26T18:11:16;8.02;;;3.95;;
82811;SDS011;72567;55.696;37.960;2024-02-26T18:14:17;9.13;;;3.60;;
82811;SDS011;72567;55.696;37.960;2024-02-26T18:17:18;8.30;;;3.70;;